createdAt,value
2022-10-19T00:00:19.889Z,15.50
2022-10-19T00:02:47.691Z,15.50
2022-10-19T00:05:15.440Z,15.50
2022-10-19T00:07:46.241Z,15.50
2022-10-19T00:10:14.158Z,15.50
2022-10-19T00:12:49.458Z,15.40
2022-10-19T00:15:17.427Z,15.50
2022-10-19T00:17:45.292Z,15.40
2022-10-19T00:20:13.142Z,15.40
2022-10-19T00:22:40.916Z,15.40
2022-10-19T00:25:09.249Z,15.40
2022-10-19T00:27:37.901Z,15.40
2022-10-19T00:30:12.594Z,15.40
2022-10-19T00:32:40.381Z,15.30
2022-10-19T00:35:08.739Z,15.30
2022-10-19T00:37:36.572Z,15.30
2022-10-19T00:40:04.583Z,15.30
2022-10-19T00:42:32.829Z,15.40
2022-10-19T00:45:02.419Z,15.50
2022-10-19T00:47:31.990Z,15.50
2022-10-19T00:50:08.557Z,15.40
2022-10-19T00:52:36.692Z,15.50
2022-10-19T00:55:04.919Z,15.50
2022-10-19T00:57:33.098Z,15.40
2022-10-19T01:00:01.555Z,15.40
2022-10-19T01:02:29.330Z,15.30
2022-10-19T01:05:02.367Z,15.30
2022-10-19T01:07:30.218Z,15.30
2022-10-19T01:09:58.238Z,15.20
2022-10-19T01:12:36.497Z,15.20
2022-10-19T01:15:11.543Z,15.10
2022-10-19T01:17:47.601Z,15.20
2022-10-19T01:20:36.618Z,15.20
2022-10-19T01:23:14.195Z,15.20
2022-10-19T01:25:49.275Z,15.10
2022-10-19T01:28:29.246Z,15.10
2022-10-19T01:31:00.282Z,15.10
2022-10-19T01:33:34.169Z,15.20
2022-10-19T01:36:06.110Z,15.30
2022-10-19T01:38:37.195Z,15.30
2022-10-19T01:41:11.392Z,15.40
2022-10-19T01:43:41.772Z,15.40
2022-10-19T01:46:13.832Z,15.40
2022-10-19T01:48:45.884Z,15.30
2022-10-19T01:51:16.033Z,15.20
2022-10-19T01:53:47.159Z,15.20
2022-10-19T01:56:15.591Z,15.10
2022-10-19T01:58:45.371Z,15.00
2022-10-19T02:01:19.248Z,14.90
2022-10-19T02:03:47.607Z,14.80
2022-10-19T02:06:15.819Z,14.70
2022-10-19T02:08:50.615Z,14.60
2022-10-19T02:11:18.926Z,14.60
2022-10-19T02:13:48.271Z,14.70
2022-10-19T02:16:21.390Z,14.60
2022-10-19T02:18:55.495Z,14.60
2022-10-19T02:21:23.331Z,14.60
2022-10-19T02:23:54.265Z,14.60
2022-10-19T02:26:22.980Z,14.60
2022-10-19T02:28:50.933Z,14.70
2022-10-19T02:31:28.589Z,14.70
2022-10-19T02:34:01.399Z,14.70
2022-10-19T02:36:29.233Z,14.60
2022-10-19T02:38:57.174Z,14.60
2022-10-19T02:41:27.080Z,14.70
2022-10-19T02:43:57.873Z,14.60
2022-10-19T02:46:29.575Z,14.60
2022-10-19T02:49:02.085Z,14.60
2022-10-19T02:51:33.431Z,14.50
2022-10-19T02:54:04.259Z,14.50
2022-10-19T02:56:33.347Z,14.40
2022-10-19T02:59:01.615Z,14.30
2022-10-19T03:01:32.573Z,14.30
2022-10-19T03:04:00.435Z,14.30
2022-10-19T03:06:28.934Z,14.30
2022-10-19T03:08:56.792Z,14.20
2022-10-19T03:11:24.650Z,14.10
2022-10-19T03:13:52.552Z,14.10
2022-10-19T03:16:20.314Z,14.10
2022-10-19T03:18:54.864Z,14.10
2022-10-19T03:21:22.615Z,14.10
2022-10-19T03:23:50.422Z,14.10
2022-10-19T03:26:18.425Z,14.00
2022-10-19T03:28:46.284Z,14.00
2022-10-19T03:31:14.129Z,13.80
2022-10-19T03:33:42.185Z,13.60
2022-10-19T03:36:20.386Z,13.60
2022-10-19T03:38:48.565Z,13.60
2022-10-19T03:41:16.385Z,13.60
2022-10-19T03:43:44.273Z,13.60
2022-10-19T03:46:12.014Z,13.60
2022-10-19T03:48:39.903Z,13.60
2022-10-19T03:51:09.067Z,13.60
2022-10-19T03:53:38.572Z,13.60
2022-10-19T03:56:19.767Z,13.60
2022-10-19T03:58:48.517Z,13.80
2022-10-19T04:01:17.676Z,13.70
2022-10-19T04:03:45.763Z,13.80
2022-10-19T04:06:21.170Z,13.90
2022-10-19T04:08:53.724Z,13.80
2022-10-19T04:11:22.656Z,13.80
2022-10-19T04:13:51.263Z,13.80
2022-10-19T04:16:19.579Z,13.90
2022-10-19T04:18:48.886Z,13.90
2022-10-19T04:21:23.877Z,14.00
2022-10-19T04:23:53.402Z,14.10
2022-10-19T04:26:21.523Z,14.10
2022-10-19T04:28:49.644Z,14.20
2022-10-19T04:31:17.596Z,14.20
2022-10-19T04:36:16.602Z,14.20
2022-10-19T04:38:44.430Z,14.10
2022-10-19T04:41:16.846Z,14.10
2022-10-19T04:43:58.408Z,14.20
2022-10-19T04:46:26.490Z,14.10
2022-10-19T04:48:56.445Z,14.10
2022-10-19T04:51:24.552Z,14.00
2022-10-19T04:53:57.016Z,14.00
2022-10-19T04:56:29.274Z,14.00
2022-10-19T04:58:57.974Z,14.00
2022-10-19T05:01:30.843Z,14.00
2022-10-19T05:03:59.978Z,14.00
2022-10-19T05:06:31.345Z,14.10
2022-10-19T05:08:59.337Z,14.10
2022-10-19T05:11:29.953Z,14.00
2022-10-19T05:13:58.240Z,14.00
2022-10-19T05:16:26.037Z,14.10
2022-10-19T05:18:56.088Z,14.10
2022-10-19T05:21:23.885Z,14.10
2022-10-19T05:23:52.474Z,14.20
2022-10-19T05:26:23.779Z,14.20
2022-10-19T05:28:58.425Z,14.20
2022-10-19T05:31:29.978Z,14.00
2022-10-19T05:33:58.195Z,13.90
2022-10-19T05:36:26.884Z,13.90
2022-10-19T05:38:55.462Z,13.90
2022-10-19T05:41:25.334Z,14.00
2022-10-19T05:43:55.137Z,14.00
2022-10-19T05:46:23.731Z,14.00
2022-10-19T05:48:51.554Z,14.00
2022-10-19T05:51:20.342Z,14.00
2022-10-19T05:53:50.287Z,14.00
2022-10-19T05:56:18.933Z,14.00
2022-10-19T05:58:46.702Z,14.00
2022-10-19T06:01:18.977Z,14.00
2022-10-19T06:03:57.059Z,14.00
2022-10-19T06:06:25.573Z,14.00
2022-10-19T06:08:53.807Z,13.90
2022-10-19T06:11:22.853Z,13.90
2022-10-19T06:13:51.436Z,13.90
2022-10-19T06:16:20.936Z,13.90
2022-10-19T06:18:48.826Z,13.90
2022-10-19T06:21:17.639Z,13.90
2022-10-19T06:23:45.535Z,14.00
2022-10-19T06:26:14.377Z,14.00
2022-10-19T06:28:44.890Z,14.10
2022-10-19T06:31:13.609Z,14.10
2022-10-19T06:33:44.313Z,14.10
2022-10-19T06:36:15.472Z,14.10
2022-10-19T06:38:43.706Z,14.10
2022-10-19T06:41:11.673Z,14.10
2022-10-19T06:43:43.014Z,14.20
2022-10-19T06:46:12.056Z,14.30
2022-10-19T06:48:44.419Z,14.20
2022-10-19T06:51:13.765Z,14.30
2022-10-19T06:53:43.927Z,14.20
2022-10-19T06:56:11.959Z,14.20
2022-10-19T06:58:40.075Z,14.20
2022-10-19T07:01:08.938Z,14.20
2022-10-19T07:03:37.553Z,14.20
2022-10-19T07:06:06.300Z,14.20
2022-10-19T07:08:36.970Z,14.30
2022-10-19T07:11:07.912Z,14.30
2022-10-19T07:13:36.200Z,14.40
2022-10-19T07:16:06.727Z,14.40
2022-10-19T07:18:35.564Z,14.40
2022-10-19T07:21:05.109Z,14.40
2022-10-19T07:23:35.823Z,14.50
2022-10-19T07:26:09.626Z,14.50
2022-10-19T07:28:37.668Z,14.50
2022-10-19T07:31:06.436Z,14.50
2022-10-19T07:33:34.732Z,14.60
2022-10-19T07:36:03.393Z,14.60
2022-10-19T07:38:32.530Z,14.50
2022-10-19T07:41:04.822Z,14.40
2022-10-19T07:43:34.706Z,14.40
2022-10-19T07:46:03.342Z,14.40
2022-10-19T07:48:31.335Z,14.30
2022-10-19T07:50:59.452Z,14.40
2022-10-19T07:53:27.506Z,14.40
2022-10-19T07:55:55.478Z,14.50
2022-10-19T07:58:23.723Z,14.50
2022-10-19T08:01:05.376Z,14.60
2022-10-19T08:06:22.478Z,14.60
2022-10-19T08:08:50.563Z,14.60
2022-10-19T08:11:19.383Z,14.60
2022-10-19T08:13:47.457Z,14.70
2022-10-19T08:16:24.355Z,14.70
2022-10-19T08:18:54.078Z,14.70
2022-10-19T08:21:21.917Z,14.80
2022-10-19T08:23:49.877Z,14.80
2022-10-19T08:26:17.814Z,14.80
2022-10-19T08:28:45.663Z,14.80
2022-10-19T08:31:14.896Z,14.90
2022-10-19T08:33:44.518Z,15.00
2022-10-19T08:36:13.138Z,15.10
2022-10-19T08:38:41.396Z,15.20
2022-10-19T08:41:17.091Z,15.50
2022-10-19T08:43:56.197Z,15.80
2022-10-19T08:46:26.095Z,16.00
2022-10-19T08:48:55.313Z,15.90
2022-10-19T08:51:23.458Z,15.80
2022-10-19T08:53:53.567Z,15.90
2022-10-19T08:56:49.405Z,15.90
2022-10-19T08:59:15.880Z,15.80
2022-10-19T09:01:46.988Z,15.90
2022-10-19T09:04:20.940Z,16.10
2022-10-19T09:06:52.690Z,16.20
2022-10-19T09:09:21.865Z,16.20
2022-10-19T09:11:51.053Z,16.40
2022-10-19T09:14:22.264Z,16.50
2022-10-19T09:16:50.181Z,16.60
2022-10-19T09:19:25.548Z,16.60
2022-10-19T09:21:56.588Z,16.50
2022-10-19T09:24:33.115Z,16.50
2022-10-19T09:27:01.842Z,16.50
2022-10-19T09:29:34.184Z,16.50
2022-10-19T09:32:02.684Z,16.30
2022-10-19T09:34:34.281Z,16.40
2022-10-19T09:37:02.334Z,16.60
2022-10-19T09:39:31.113Z,16.90
2022-10-19T09:42:03.366Z,17.00
2022-10-19T09:44:31.586Z,16.80
2022-10-19T09:47:03.713Z,16.80
2022-10-19T09:49:41.825Z,16.90
2022-10-19T09:52:24.307Z,17.10
2022-10-19T09:55:03.167Z,17.30
2022-10-19T09:57:32.268Z,17.40
2022-10-19T10:00:00.486Z,17.50
2022-10-19T10:02:32.996Z,17.50
2022-10-19T10:05:06.683Z,17.60
2022-10-19T10:07:36.657Z,17.60
2022-10-19T10:13:28.238Z,17.80
2022-10-19T10:15:57.869Z,17.90
2022-10-19T10:18:26.465Z,18.10
2022-10-19T10:21:00.605Z,18.20
2022-10-19T10:23:31.144Z,18.20
2022-10-19T10:26:00.088Z,18.10
2022-10-19T10:28:29.344Z,18.10
2022-10-19T10:31:00.529Z,18.10
2022-10-19T10:33:44.295Z,18.10
2022-10-19T10:36:24.450Z,18.10
2022-10-19T10:38:54.204Z,18.10
2022-10-19T10:41:24.080Z,18.20
2022-10-19T10:43:53.562Z,18.30
2022-10-19T10:46:24.464Z,18.30
2022-10-19T10:48:57.970Z,18.30
2022-10-19T10:51:31.662Z,18.30
2022-10-19T10:54:08.073Z,18.40
2022-10-19T10:56:41.673Z,18.50
2022-10-19T10:59:14.119Z,18.50
2022-10-19T11:01:43.111Z,18.40
2022-10-19T11:04:13.054Z,18.30
2022-10-19T11:06:44.941Z,18.30
2022-10-19T11:09:17.715Z,18.20
2022-10-19T11:11:47.123Z,18.20
2022-10-19T11:14:31.103Z,18.20
2022-10-19T11:17:04.860Z,18.30
2022-10-19T11:19:35.396Z,18.30
2022-10-19T11:22:10.326Z,18.30
2022-10-19T11:24:46.392Z,18.30
2022-10-19T11:27:22.730Z,18.30
2022-10-19T11:29:56.991Z,18.30
2022-10-19T11:32:28.666Z,18.40
2022-10-19T11:35:05.182Z,18.40
2022-10-19T11:37:45.751Z,18.50
2022-10-19T11:40:23.463Z,18.70
2022-10-19T11:42:56.093Z,19.00
2022-10-19T11:45:29.981Z,19.10
2022-10-19T11:48:09.471Z,19.20
2022-10-19T11:50:44.112Z,19.10
2022-10-19T11:53:24.025Z,19.10
2022-10-19T11:55:58.182Z,19.20
2022-10-19T11:58:36.008Z,19.20
2022-10-19T12:01:09.273Z,19.20
2022-10-19T12:03:54.181Z,19.20
2022-10-19T12:06:28.778Z,19.20
2022-10-19T12:09:07.297Z,19.10
2022-10-19T12:11:42.490Z,19.20
2022-10-19T12:14:14.465Z,19.20
2022-10-19T12:16:44.628Z,19.10
2022-10-19T12:19:16.431Z,19.20
2022-10-19T12:21:45.875Z,19.20
2022-10-19T12:24:16.968Z,19.20
2022-10-19T12:26:48.360Z,19.30
2022-10-19T12:29:17.318Z,19.30
2022-10-19T12:31:45.933Z,19.30
2022-10-19T12:34:29.754Z,19.30
2022-10-19T12:37:02.026Z,19.30
2022-10-19T12:39:38.295Z,19.30
2022-10-19T12:42:11.895Z,19.40
2022-10-19T12:44:56.257Z,19.40
2022-10-19T12:47:27.102Z,19.50
2022-10-19T12:49:56.164Z,19.40
2022-10-19T12:52:40.029Z,19.40
2022-10-19T12:55:30.521Z,19.40
2022-10-19T12:58:00.345Z,19.40
2022-10-19T13:00:32.354Z,19.50
2022-10-19T13:03:02.032Z,19.60
2022-10-19T13:05:30.497Z,19.70
2022-10-19T13:08:14.539Z,19.70
2022-10-19T13:11:03.553Z,19.80
2022-10-19T13:13:46.261Z,19.80
2022-10-19T13:16:28.973Z,19.90
2022-10-19T13:19:14.764Z,20.00
2022-10-19T13:21:55.306Z,19.90
2022-10-19T13:24:33.924Z,19.90
2022-10-19T13:27:21.359Z,19.90
2022-10-19T13:29:50.982Z,19.90
2022-10-19T13:32:32.784Z,19.80
2022-10-19T13:35:15.828Z,19.80
2022-10-19T13:37:44.238Z,19.90
2022-10-19T13:40:23.754Z,20.00
2022-10-19T13:42:58.803Z,20.00
2022-10-19T13:45:28.306Z,20.10
2022-10-19T13:47:58.431Z,20.10
2022-10-19T13:50:31.490Z,20.20
2022-10-19T13:53:05.015Z,20.20
2022-10-19T13:55:50.538Z,20.20
2022-10-19T13:58:27.069Z,20.30
2022-10-19T14:01:04.732Z,20.40
2022-10-19T14:03:41.825Z,20.40
2022-10-19T14:06:14.572Z,20.30
2022-10-19T14:09:01.307Z,20.20
2022-10-19T14:11:32.149Z,20.00
2022-10-19T14:14:17.300Z,19.80
2022-10-19T14:16:51.679Z,19.80
2022-10-19T14:19:26.736Z,19.80
2022-10-19T14:22:00.714Z,19.70
2022-10-19T14:24:29.979Z,19.50
2022-10-19T14:26:58.684Z,19.30
2022-10-19T14:29:29.117Z,19.30
2022-10-19T14:31:59.773Z,19.20
2022-10-19T14:34:27.883Z,19.20
2022-10-19T14:36:56.152Z,19.20
2022-10-19T14:39:30.028Z,19.10
2022-10-19T14:42:00.440Z,19.10
2022-10-19T14:44:39.783Z,19.00
2022-10-19T14:47:20.845Z,18.90
2022-10-19T14:49:49.051Z,18.90
2022-10-19T14:52:20.359Z,18.80
2022-10-19T14:54:49.805Z,18.80
2022-10-19T14:57:20.068Z,18.70
2022-10-19T14:59:48.944Z,18.60
2022-10-19T15:02:19.071Z,18.60
2022-10-19T15:04:48.791Z,18.60
2022-10-19T15:07:18.958Z,18.60
2022-10-19T15:09:51.065Z,18.50
2022-10-19T15:12:20.479Z,18.50
2022-10-19T15:14:49.032Z,18.40
2022-10-19T15:17:27.210Z,18.30
2022-10-19T15:19:56.820Z,18.30
2022-10-19T15:22:30.537Z,18.20
2022-10-19T15:25:00.210Z,18.10
2022-10-19T15:27:32.552Z,18.10
2022-10-19T15:30:01.197Z,18.00
2022-10-19T15:32:32.581Z,17.90
2022-10-19T15:35:11.934Z,17.80
2022-10-19T15:37:41.774Z,17.80
2022-10-19T15:40:11.104Z,17.70
2022-10-19T15:42:42.016Z,17.70
2022-10-19T15:45:31.320Z,17.60
2022-10-19T15:48:26.260Z,17.60
2022-10-19T15:50:56.401Z,17.50
2022-10-19T15:53:24.269Z,17.40
2022-10-19T15:55:52.274Z,17.40
2022-10-19T15:58:21.341Z,17.30
2022-10-19T16:00:49.260Z,17.20
2022-10-19T16:03:17.383Z,17.20
2022-10-19T16:05:45.783Z,17.20
2022-10-19T16:08:15.279Z,17.10
2022-10-19T16:10:43.234Z,17.10
2022-10-19T16:13:11.070Z,17.00
2022-10-19T16:15:53.414Z,16.90
2022-10-19T16:18:29.497Z,16.80
2022-10-19T16:20:57.395Z,16.80
2022-10-19T16:23:39.398Z,16.70
2022-10-19T16:26:12.257Z,16.60
2022-10-19T16:28:40.221Z,16.60
2022-10-19T16:31:09.723Z,16.50
2022-10-19T16:33:45.112Z,16.50
2022-10-19T16:36:13.102Z,16.40
2022-10-19T16:38:44.624Z,16.40
2022-10-19T16:41:13.055Z,16.40
2022-10-19T16:43:49.642Z,16.30
2022-10-19T16:46:22.000Z,16.20
2022-10-19T16:48:49.995Z,16.10
2022-10-19T16:51:23.887Z,16.10
2022-10-19T16:53:54.344Z,16.00
2022-10-19T16:56:26.620Z,15.90
2022-10-19T16:58:55.735Z,15.80
2022-10-19T17:01:23.845Z,15.70
2022-10-19T17:03:51.946Z,15.60
2022-10-19T17:06:22.021Z,15.60
2022-10-19T17:09:23.702Z,15.50
2022-10-19T17:11:40.120Z,15.50
2022-10-19T17:14:09.392Z,15.40
2022-10-19T17:16:38.500Z,15.40
2022-10-19T17:19:07.309Z,15.40
2022-10-19T17:21:37.934Z,15.30
2022-10-19T17:24:06.594Z,15.30
2022-10-19T17:26:34.999Z,15.30
2022-10-19T17:29:04.264Z,15.30
2022-10-19T17:31:32.307Z,15.30
2022-10-19T17:34:00.656Z,15.20
2022-10-19T17:36:29.238Z,15.20
2022-10-19T17:38:58.365Z,15.10
2022-10-19T17:41:26.585Z,15.10
2022-10-19T17:43:54.545Z,15.00
2022-10-19T17:46:25.256Z,15.00
2022-10-19T17:48:53.108Z,15.10
2022-10-19T17:51:23.652Z,15.00
2022-10-19T17:53:51.660Z,15.00
2022-10-19T17:56:20.768Z,15.00
2022-10-19T17:58:48.605Z,15.00
2022-10-19T18:01:16.871Z,15.00
2022-10-19T18:03:46.730Z,15.00
2022-10-19T18:06:18.644Z,15.00
2022-10-19T18:08:47.092Z,15.00
2022-10-19T18:11:16.382Z,14.90
2022-10-19T18:13:44.450Z,14.90
2022-10-19T18:16:13.371Z,14.90
2022-10-19T18:18:42.585Z,14.90
2022-10-19T18:21:12.692Z,14.90
2022-10-19T18:23:41.043Z,14.90
2022-10-19T18:26:10.292Z,14.90
2022-10-19T18:28:38.316Z,14.90
2022-10-19T18:31:07.201Z,14.90
2022-10-19T18:33:35.500Z,14.90
2022-10-19T18:36:05.712Z,14.80
2022-10-19T18:38:34.925Z,14.80
2022-10-19T18:41:05.073Z,14.80
2022-10-19T18:43:33.105Z,14.80
2022-10-19T18:46:01.505Z,14.70
2022-10-19T18:48:30.370Z,14.70
2022-10-19T18:50:58.210Z,14.70
2022-10-19T18:53:26.618Z,14.70
2022-10-19T18:55:59.246Z,14.60
2022-10-19T18:58:27.227Z,14.50
2022-10-19T19:01:03.313Z,14.50
2022-10-19T19:03:31.647Z,14.50
2022-10-19T19:06:00.095Z,14.40
2022-10-19T19:08:28.523Z,14.40
2022-10-19T19:10:56.745Z,14.30
2022-10-19T19:13:26.957Z,14.30
2022-10-19T19:15:58.592Z,14.30
2022-10-19T19:18:26.459Z,14.30
2022-10-19T19:20:54.544Z,14.30
2022-10-19T19:23:22.394Z,14.30
2022-10-19T19:25:50.475Z,14.20
2022-10-19T19:28:18.432Z,14.10
2022-10-19T19:30:47.832Z,14.10
2022-10-19T19:33:15.671Z,14.00
2022-10-19T19:35:44.050Z,13.90
2022-10-19T19:38:12.144Z,13.80
2022-10-19T19:40:40.574Z,13.80
2022-10-19T19:43:08.535Z,13.70
2022-10-19T19:45:36.349Z,13.70
2022-10-19T19:48:06.442Z,13.70
2022-10-19T19:50:34.939Z,13.60
2022-10-19T19:53:03.852Z,13.60
2022-10-19T19:55:38.134Z,13.50
2022-10-19T19:58:07.100Z,13.50
2022-10-19T20:00:35.037Z,13.50
2022-10-19T20:03:03.031Z,13.50
2022-10-19T20:05:32.832Z,13.60
2022-10-19T20:08:00.718Z,13.60
2022-10-19T20:10:28.758Z,13.60
2022-10-19T20:12:56.655Z,13.60
2022-10-19T20:15:24.623Z,13.70
2022-10-19T20:17:52.583Z,13.70
2022-10-19T20:20:21.267Z,13.60
2022-10-19T20:22:50.538Z,13.60
2022-10-19T20:25:18.540Z,13.70
2022-10-19T20:27:46.743Z,13.70
2022-10-19T20:30:14.513Z,13.70
2022-10-19T20:32:42.319Z,13.70
2022-10-19T20:35:10.470Z,13.70
2022-10-19T20:37:38.242Z,13.70
2022-10-19T20:40:08.994Z,13.70
2022-10-19T20:42:37.184Z,13.70
2022-10-19T20:45:05.609Z,13.70
2022-10-19T20:47:33.993Z,13.70
2022-10-19T20:52:29.692Z,13.70
2022-10-19T20:54:57.511Z,13.80
2022-10-19T20:57:26.635Z,13.70
2022-10-19T20:59:54.428Z,13.70
2022-10-19T21:02:22.241Z,13.70
2022-10-19T21:04:50.452Z,13.70
2022-10-19T21:07:18.186Z,13.70
2022-10-19T21:09:46.159Z,13.60
2022-10-19T21:12:14.131Z,13.60
2022-10-19T21:14:44.447Z,13.60
2022-10-19T21:17:12.215Z,13.50
2022-10-19T21:19:40.053Z,13.50
2022-10-19T21:22:08.536Z,13.50
2022-10-19T21:24:37.092Z,13.50
2022-10-19T21:27:05.956Z,13.50
2022-10-19T21:29:34.264Z,13.50
2022-10-19T21:32:03.730Z,13.50
2022-10-19T21:34:37.419Z,13.40
2022-10-19T21:37:05.286Z,13.40
2022-10-19T21:39:33.092Z,13.30
2022-10-19T21:42:00.873Z,13.30
2022-10-19T21:44:28.715Z,13.20
2022-10-19T21:46:59.424Z,13.20
2022-10-19T21:49:31.854Z,13.10
2022-10-19T21:51:59.680Z,13.00
2022-10-19T21:54:29.079Z,13.00
2022-10-19T21:56:58.499Z,12.80
2022-10-19T21:59:26.340Z,12.70
2022-10-19T22:01:55.233Z,12.60
2022-10-19T22:04:23.310Z,12.60
2022-10-19T22:06:52.448Z,12.60
2022-10-19T22:09:21.881Z,12.60
2022-10-19T22:11:52.221Z,12.70
2022-10-19T22:14:20.054Z,12.70
2022-10-19T22:16:47.749Z,12.70
2022-10-19T22:19:15.570Z,12.60
2022-10-19T22:21:43.305Z,12.60
2022-10-19T22:24:14.132Z,12.60
2022-10-19T22:26:42.942Z,12.60
2022-10-19T22:29:10.962Z,12.60
2022-10-19T22:31:39.003Z,12.60
2022-10-19T22:34:08.104Z,12.60
2022-10-19T22:36:36.177Z,12.60
2022-10-19T22:39:04.056Z,12.60
2022-10-19T22:41:33.152Z,12.60
2022-10-19T22:44:01.105Z,12.50
2022-10-19T22:46:28.911Z,12.40
2022-10-19T22:48:56.702Z,12.30
2022-10-19T22:51:24.578Z,12.20
2022-10-19T22:53:52.367Z,12.10
2022-10-19T22:56:20.121Z,12.00
2022-10-19T22:58:49.293Z,12.00
2022-10-19T23:01:17.219Z,11.80
2022-10-19T23:03:45.043Z,11.70
2022-10-19T23:06:13.355Z,11.70
2022-10-19T23:08:41.273Z,11.70
2022-10-19T23:11:09.067Z,11.60
2022-10-19T23:13:36.820Z,11.50
2022-10-19T23:16:06.292Z,11.50
2022-10-19T23:18:34.835Z,11.50
2022-10-19T23:21:03.583Z,11.40
2022-10-19T23:23:31.930Z,11.40
2022-10-19T23:26:00.690Z,11.40
2022-10-19T23:28:28.562Z,11.40
2022-10-19T23:30:57.215Z,11.40
2022-10-19T23:33:26.906Z,11.40
2022-10-19T23:35:54.690Z,11.40
2022-10-19T23:38:22.484Z,11.40
2022-10-19T23:40:50.255Z,11.30
2022-10-19T23:43:18.030Z,11.30
2022-10-19T23:45:46.197Z,11.20
2022-10-19T23:48:13.960Z,11.20
2022-10-19T23:50:44.663Z,11.20
2022-10-19T23:53:12.628Z,11.10
2022-10-19T23:55:43.279Z,11.10
2022-10-19T23:58:11.289Z,11.00
